Time;durP1;ratioP1;P1;durP2;ratioP2;P2;SDS_P1;SDS_P2;PMS_P1;PMS_P2;Temp;Humidity;BMP_temperature;BMP_pressure;BME280_temperature;BME280_humidity;BME280_pressure;Samples;Min_cycle;Max_cycle;Signal;HPM_P1;HPM_P2
2022/03/12 00:00:56;;;;;;;10.70;9.80;;;;;;;23.01;23.45;95852.97;6171358;28;103379;-74
2022/03/12 00:04:00;;;;;;;10.10;9.30;;;;;;;23.01;23.57;95851.13;6173766;28;104558;-74
2022/03/12 00:07:06;;;;;;;9.53;8.67;;;;;;;23.01;23.44;95855.66;6189685;28;103363;-74
2022/03/12 00:10:13;;;;;;;9.00;8.30;;;;;;;23.00;23.22;95852.19;6169055;28;103001;-73
2022/03/12 00:13:15;;;;;;;8.70;7.90;;;;;;;23.00;23.36;95854.06;6189014;28;103022;-75
2022/03/12 00:16:23;;;;;;;9.00;8.20;;;;;;;22.98;22.95;95861.56;6172883;28;103314;-73
2022/03/12 00:19:25;;;;;;;8.43;7.73;;;;;;;22.99;23.07;95861.25;6169212;28;103223;-74
2022/03/12 00:22:27;;;;;;;8.77;8.07;;;;;;;22.99;23.61;95865.81;6163691;28;103868;-73
2022/03/12 00:25:31;;;;;;;8.10;7.40;;;;;;;22.99;23.21;95866.59;6190052;28;103236;-74
2022/03/12 00:28:33;;;;;;;8.40;7.70;;;;;;;22.99;23.43;95855.13;6189507;28;103147;-76
2022/03/12 00:31:35;;;;;;;7.70;7.10;;;;;;;22.99;23.49;95866.59;6167826;28;104730;-74
2022/03/12 00:34:37;;;;;;;7.20;6.50;;;;;;;22.99;23.40;95863.94;6191226;28;103091;-73
2022/03/12 00:37:39;;;;;;;7.70;7.07;;;;;;;22.98;23.52;95862.34;6172141;28;102971;-74
2022/03/12 00:40:42;;;;;;;6.70;6.20;;;;;;;22.98;23.72;95859.69;6170401;28;103376;-75
2022/03/12 00:43:45;;;;;;;6.50;6.00;;;;;;;22.99;23.39;95855.94;6185356;28;103263;-74
2022/03/12 00:46:47;;;;;;;6.43;5.80;;;;;;;22.98;23.70;95858.88;6188545;28;106015;-73
2022/03/12 00:49:50;;;;;;;5.70;5.30;;;;;;;22.99;23.57;95855.13;6190410;28;103287;-75
2022/03/12 00:52:51;;;;;;;5.83;5.43;;;;;;;22.99;23.60;95855.94;6166172;28;103236;-74
2022/03/12 00:55:53;;;;;;;5.77;5.30;;;;;;;22.99;23.61;95855.94;6189888;28;103545;-74
2022/03/12 00:58:56;;;;;;;5.90;5.40;;;;;;;22.98;23.92;95856.22;6187947;28;105550;-75
2022/03/12 01:01:58;;;;;;;5.73;5.27;;;;;;;22.97;23.47;95863.41;6185574;28;103276;-75
2022/03/12 01:05:00;;;;;;;5.20;4.80;;;;;;;22.97;23.82;95866.09;6169334;28;103616;-76
2022/03/12 01:08:02;;;;;;;5.23;4.83;;;;;;;22.96;23.96;95867.16;6172123;28;103252;-78
2022/03/12 01:11:07;;;;;;;4.77;4.47;;;;;;;22.96;23.84;95866.38;6184408;28;103259;-74
2022/03/12 01:14:09;;;;;;;4.53;4.17;;;;;;;22.96;24.41;95867.16;6161241;28;106185;-74
2022/03/12 01:17:11;;;;;;;4.63;4.23;;;;;;;22.98;23.93;95870.34;6188242;28;102794;-75
2022/03/12 01:20:13;;;;;;;4.10;3.80;;;;;;;23.00;24.38;95872.72;6187797;28;106718;-75
2022/03/12 01:23:17;;;;;;;4.23;3.93;;;;;;;22.97;24.38;95863.41;6167399;28;102910;-75
2022/03/12 01:26:21;;;;;;;3.70;3.50;;;;;;;23.01;24.72;95871.63;6185880;28;104417;-75
2022/03/12 01:29:25;;;;;;;3.90;3.60;;;;;;;23.02;24.81;95870.59;6196907;28;107300;-77
2022/03/12 01:32:26;;;;;;;3.83;3.53;;;;;;;23.00;24.60;95872.72;6169234;28;105806;-75
2022/03/12 01:35:28;;;;;;;3.83;3.43;;;;;;;22.99;24.66;95869.25;6187325;28;105680;-74
2022/03/12 01:38:36;;;;;;;3.70;3.40;;;;;;;23.00;24.59;95868.19;6167855;28;106380;-73
2022/03/12 01:41:42;;;;;;;3.50;3.20;;;;;;;23.02;24.79;95870.59;6184697;28;104267;-73
2022/03/12 01:44:44;;;;;;;4.03;3.60;;;;;;;23.01;25.19;95864.47;6170356;28;103038;-74
2022/03/12 01:47:47;;;;;;;5.27;3.40;;;;;;;22.98;25.16;95854.34;6181146;28;103710;-73
2022/03/12 01:50:49;;;;;;;4.63;3.33;;;;;;;22.98;24.85;95849.00;6168778;28;104110;-76
2022/03/12 01:53:51;;;;;;;3.07;2.70;;;;;;;22.94;25.34;95836.56;6168269;28;103074;-73
2022/03/12 01:56:54;;;;;;;3.03;2.83;;;;;;;23.00;25.05;95852.19;6168730;28;103116;-73
2022/03/12 01:59:58;;;;;;;3.47;3.17;;;;;;;22.98;25.03;95854.34;6166110;28;104629;-75
2022/03/12 02:03:00;;;;;;;3.40;3.10;;;;;;;22.99;25.07;95850.59;6184647;28;104300;-74
2022/03/12 02:06:02;;;;;;;3.33;3.03;;;;;;;22.99;24.88;95853.25;6169985;28;103170;-72
2022/03/12 02:09:04;;;;;;;3.27;2.97;;;;;;;23.01;25.10;95859.13;6184124;28;103536;-74
2022/03/12 02:12:06;;;;;;;4.60;3.00;;;;;;;23.01;25.80;95853.81;6166248;28;103494;-72
2022/03/12 02:15:09;;;;;;;4.30;2.57;;;;;;;22.99;25.84;95861.25;6169459;28;104134;-73
2022/03/12 02:18:13;;;;;;;3.77;2.50;;;;;;;23.00;25.83;95852.19;6181382;28;103246;-75
2022/03/12 02:21:34;;;;;;;3.33;2.80;;;;;;;22.96;25.70;95859.16;6161415;28;103925;-76
2022/03/12 02:24:37;;;;;;;3.07;2.70;;;;;;;22.98;25.58;95869.53;6186057;28;103063;-73
2022/03/12 02:27:40;;;;;;;3.53;2.57;;;;;;;22.96;25.71;95867.16;6164106;28;103125;-74
2022/03/12 02:30:51;;;;;;;3.33;2.40;;;;;;;22.95;25.58;95862.91;6168403;28;102829;-74
2022/03/12 02:34:01;;;;;;;2.90;2.70;;;;;;;22.92;25.94;95868.81;6181459;28;104870;-73
2022/03/12 02:37:03;;;;;;;2.30;2.10;;;;;;;22.91;25.44;95864.56;6178609;28;103833;-74
2022/03/12 02:40:09;;;;;;;3.07;2.47;;;;;;;22.91;25.58;95863.78;6163068;28;103326;-72
2022/03/12 02:43:13;;;;;;;2.37;2.27;;;;;;;22.92;25.36;95866.16;6182242;28;103127;-75
2022/03/12 02:46:16;;;;;;;3.53;2.00;;;;;;;22.91;25.35;95861.91;6188326;28;103996;-72
2022/03/12 02:49:18;;;;;;;1.90;1.80;;;;;;;22.92;25.00;95874.16;6184156;28;105245;-75
2022/03/12 02:52:22;;;;;;;3.07;2.00;;;;;;;22.94;25.07;95874.66;6166369;28;103090;-72
2022/03/12 02:55:24;;;;;;;2.60;2.40;;;;;;;22.91;25.19;95880.56;6163488;28;103994;-73
2022/03/12 02:58:27;;;;;;;2.23;1.97;;;;;;;22.93;25.09;95881.06;6186715;28;103583;-73
2022/03/12 03:01:29;;;;;;;2.63;2.43;;;;;;;22.95;25.21;95880.78;6185285;28;105744;-73
2022/03/12 03:04:35;;;;;;;3.23;2.27;;;;;;;22.91;25.01;95887.75;6166513;28;105617;-73
2022/03/12 03:07:37;;;;;;;2.30;2.10;;;;;;;22.90;25.44;95886.16;6188499;28;104105;-74
2022/03/12 03:10:40;;;;;;;2.37;2.20;;;;;;;22.92;25.14;95895.47;6185390;28;103457;-75
2022/03/12 03:13:44;;;;;;;2.43;2.23;;;;;;;22.93;25.29;95890.94;6168707;28;102959;-73
2022/03/12 03:16:51;;;;;;;2.70;2.50;;;;;;;22.90;24.94;95892.28;6183363;28;104163;-74
2022/03/12 03:19:56;;;;;;;2.90;2.10;;;;;;;22.92;25.19;95898.13;6170701;28;103112;-74
2022/03/12 03:22:58;;;;;;;2.37;2.17;;;;;;;22.91;24.72;95896.53;6185023;28;103083;-74
2022/03/12 03:26:03;;;;;;;2.40;2.30;;;;;;;22.95;24.65;95897.56;6184238;28;103082;-73
2022/03/12 03:29:05;;;;;;;2.00;1.90;;;;;;;22.91;25.42;95903.75;6169353;28;103534;-72
2022/03/12 03:32:08;;;;;;;2.30;2.10;;;;;;;22.92;25.05;95900.78;6184710;28;104988;-72
2022/03/12 03:35:10;;;;;;;2.80;2.40;;;;;;;22.92;25.42;95902.66;6170458;28;103508;-72
2022/03/12 03:38:13;;;;;;;2.43;2.23;;;;;;;22.96;25.19;95901.03;6184505;28;103428;-73
2022/03/12 03:41:15;;;;;;;2.53;2.33;;;;;;;22.93;25.36;95902.38;6185468;28;107033;-73
2022/03/12 03:44:26;;;;;;;2.30;1.97;;;;;;;22.93;25.21;95905.03;6187822;28;103318;-75
2022/03/12 03:47:28;;;;;;;2.53;2.33;;;;;;;22.92;25.30;95900.78;6169614;28;103291;-74
2022/03/12 03:50:30;;;;;;;2.27;2.07;;;;;;;22.93;25.30;95905.03;6182741;28;103893;-72
2022/03/12 03:53:32;;;;;;;3.07;2.43;;;;;;;22.96;25.32;95901.81;6187208;28;103329;-75
2022/03/12 03:56:37;;;;;;;2.23;2.07;;;;;;;22.98;25.44;95906.84;6166929;28;104246;-75
2022/03/12 03:59:39;;;;;;;2.13;2.03;;;;;;;22.94;24.95;95906.63;6193192;28;102669;-72
2022/03/12 04:02:41;;;;;;;2.20;2.10;;;;;;;22.97;25.69;95908.72;6187710;28;103728;-73
2022/03/12 04:05:43;;;;;;;2.97;2.00;;;;;;;22.95;25.16;95907.44;6174579;28;104486;-75
2022/03/12 04:08:46;;;;;;;2.50;2.30;;;;;;;22.95;25.27;95913.56;6167380;28;103074;-75
2022/03/12 04:11:48;;;;;;;2.53;2.33;;;;;;;22.95;25.26;95913.56;6179914;28;102773;-74
2022/03/12 04:14:50;;;;;;;2.50;2.30;;;;;;;22.94;25.33;95916.50;6192493;28;103304;-74
2022/03/12 04:17:53;;;;;;;2.97;2.77;;;;;;;22.93;25.16;95921.03;6180740;28;103444;-77
2022/03/12 04:20:56;;;;;;;3.30;2.17;;;;;;;22.94;25.17;95914.63;6171407;28;105608;-79
2022/03/12 04:23:58;;;;;;;3.37;3.13;;;;;;;22.97;25.08;95916.72;6182996;28;103042;-74
2022/03/12 04:27:01;;;;;;;3.00;2.80;;;;;;;22.98;25.51;95917.50;6204201;28;103188;-74
2022/03/12 04:30:03;;;;;;;3.10;2.90;;;;;;;22.98;25.07;95923.63;6188674;28;106695;-75
2022/03/12 04:33:08;;;;;;;3.70;3.40;;;;;;;22.99;24.69;95927.09;6181615;28;103662;-73
2022/03/12 04:36:11;;;;;;;3.43;3.13;;;;;;;22.97;24.98;95930.03;6189042;28;103681;-76
2022/03/12 04:39:14;;;;;;;3.40;3.20;;;;;;;22.97;25.18;95935.38;6169151;28;102999;-75
2022/03/12 04:42:21;;;;;;;4.57;4.17;;;;;;;22.94;25.01;95937.81;6166104;28;103102;-74
2022/03/12 04:45:26;;;;;;;4.00;3.70;;;;;;;22.94;24.93;95954.59;6176795;28;103131;-74
2022/03/12 04:48:32;;;;;;;3.80;3.57;;;;;;;22.96;24.35;95949.00;6169754;28;104019;-74
2022/03/12 04:51:34;;;;;;;3.80;3.50;;;;;;;23.01;25.05;95960.41;6185276;28;103024;-73
2022/03/12 04:54:36;;;;;;;5.00;4.00;;;;;;;23.03;25.14;95960.91;6187198;28;103421;-76
2022/03/12 04:57:40;;;;;;;7.77;6.07;;;;;;;22.82;25.18;95962.16;6191515;28;103555;-78
2022/03/12 05:00:44;;;;;;;7.30;6.57;;;;;;;22.72;25.18;95954.25;6125958;28;1418638;-74
2022/03/12 05:03:47;;;;;;;9.37;6.63;;;;;;;22.68;24.83;95961.22;6192401;28;103520;-76
2022/03/12 05:06:51;;;;;;;9.00;6.87;;;;;;;22.41;24.51;95964.38;6189692;28;103361;-78
2022/03/12 05:09:57;;;;;;;9.00;7.40;;;;;;;22.35;23.47;95974.28;6191898;28;103427;-77
2022/03/12 05:13:02;;;;;;;12.40;11.10;;;;;;;22.31;24.28;95977.75;6193101;28;103073;-78
2022/03/12 05:16:06;;;;;;;25.13;22.83;;;;;;;21.98;22.80;95976.59;6190824;28;102977;-80
2022/03/12 05:19:08;;;;;;;19.93;18.23;;;;;;;21.84;21.88;95973.78;6179743;28;103213;-76
2022/03/12 05:22:10;;;;;;;90.63;83.53;;;;;;;21.89;22.64;95977.19;6183230;28;102743;-73
2022/03/12 05:25:13;;;;;;;44.77;41.10;;;;;;;22.02;22.22;95985.66;6174775;28;103378;-75
2022/03/12 05:28:23;;;;;;;72.63;66.57;;;;;;;21.93;22.92;95980.91;6171322;28;103301;-73
2022/03/12 05:31:25;;;;;;;49.60;45.40;;;;;;;21.50;21.45;95989.59;6189384;28;102896;-74
2022/03/12 05:34:27;;;;;;;32.83;30.23;;;;;;;21.15;21.57;95987.81;6189994;28;106089;-73
2022/03/12 05:37:29;;;;;;;22.90;21.00;;;;;;;20.80;20.73;95991.34;6190134;28;103513;-72
2022/03/12 05:40:31;;;;;;;30.23;27.57;;;;;;;20.59;21.33;96011.81;6187672;28;103528;-73
2022/03/12 05:43:36;;;;;;;23.93;21.93;;;;;;;20.37;21.05;96010.19;6172300;28;106466;-74
2022/03/12 05:46:38;;;;;;;19.90;18.20;;;;;;;20.17;20.67;96015.47;6175198;28;103260;-73
2022/03/12 05:49:40;;;;;;;15.40;14.20;;;;;;;20.01;21.05;96014.63;6186572;28;103407;-73
2022/03/12 05:52:50;;;;;;;15.23;13.77;;;;;;;19.78;20.66;96021.16;6170931;28;103323;-76
2022/03/12 05:55:53;;;;;;;15.40;14.00;;;;;;;20.27;20.87;96012.81;6174626;28;102913;-75
2022/03/12 05:58:55;;;;;;;24.40;22.30;;;;;;;20.45;21.02;96022.13;6176030;28;103428;-75
2022/03/12 06:01:57;;;;;;;20.50;18.80;;;;;;;20.58;21.10;96021.63;6160923;28;105911;-74
2022/03/12 06:04:59;;;;;;;18.50;17.00;;;;;;;20.65;21.06;96019.50;6150083;28;102694;-74
2022/03/12 06:08:02;;;;;;;15.10;13.90;;;;;;;20.63;20.89;96023.47;6169051;28;102709;-76
2022/03/12 06:11:06;;;;;;;20.10;18.40;;;;;;;20.91;22.05;96030.91;6180372;28;103675;-75
2022/03/12 06:14:15;;;;;;;21.57;19.67;;;;;;;21.34;23.58;96047.38;6162451;28;102851;-74
2022/03/12 06:17:18;;;;;;;15.03;13.73;;;;;;;21.43;22.67;96043.06;6169675;28;105045;-76
2022/03/12 06:20:23;;;;;;;15.53;14.20;;;;;;;21.54;23.36;96051.81;6161281;28;104886;-73
2022/03/12 06:23:46;;;;;;;15.57;14.17;;;;;;;21.63;23.91;96036.88;6175810;28;103326;-77
2022/03/12 06:27:03;;;;;;;14.77;13.47;;;;;;;21.81;24.01;96044.25;6158814;28;103030;-76
2022/03/12 06:30:08;;;;;;;13.40;12.40;;;;;;;21.98;24.04;96056.44;6179211;28;103863;-76
2022/03/12 06:33:10;;;;;;;13.23;12.03;;;;;;;22.02;23.62;96049.53;6166826;28;102972;-78
2022/03/12 06:36:16;;;;;;;11.77;10.77;;;;;;;22.09;23.70;96058.00;6157550;28;103174;-77
2022/03/12 06:39:18;;;;;;;11.97;11.07;;;;;;;22.06;24.00;96064.69;6167635;28;103614;-77
2022/03/12 06:42:31;;;;;;;11.80;10.80;;;;;;;22.12;23.90;96066.25;6168214;28;103696;-75
2022/03/12 06:45:32;;;;;;;11.30;9.50;;;;;;;22.07;23.82;96063.63;6163491;28;104099;-75
2022/03/12 06:48:35;;;;;;;10.17;9.30;;;;;;;22.15;23.88;96075.53;6161096;28;103090;-78
2022/03/12 06:51:38;;;;;;;9.80;9.00;;;;;;;21.83;22.86;96071.38;6165863;28;106500;-77
2022/03/12 06:54:41;;;;;;;10.23;8.90;;;;;;;21.88;23.11;96076.72;6156955;28;106788;-76
2022/03/12 06:57:42;;;;;;;9.27;8.37;;;;;;;21.85;23.64;96071.13;6149541;28;105235;-75
2022/03/12 07:00:45;;;;;;;8.10;7.50;;;;;;;21.97;23.25;96076.13;6166029;28;103304;-76
2022/03/12 07:03:47;;;;;;;9.13;8.37;;;;;;;22.15;22.99;96079.00;6163620;28;103360;-77
2022/03/12 07:06:50;;;;;;;8.20;7.50;;;;;;;22.29;22.59;96081.06;6174889;28;103772;-75
2022/03/12 07:09:52;;;;;;;9.27;8.47;;;;;;;22.43;23.23;96080.19;6191026;28;103543;-76
2022/03/12 07:12:54;;;;;;;11.70;8.20;;;;;;;22.50;23.20;96087.84;6177016;28;103411;-76
2022/03/12 07:15:57;;;;;;;8.60;8.00;;;;;;;22.52;22.88;96088.41;6174811;28;102834;-78
2022/03/12 07:18:59;;;;;;;9.40;8.60;;;;;;;22.61;22.82;96099.25;6174837;28;103422;-78
2022/03/12 07:22:01;;;;;;;8.40;7.70;;;;;;;22.65;22.38;96100.28;6194054;28;104722;-77
2022/03/12 07:25:11;;;;;;;8.17;7.47;;;;;;;22.83;22.44;96099.66;6180156;28;105324;-77
2022/03/12 07:28:17;;;;;;;9.50;8.03;;;;;;;22.84;23.37;96114.56;6180325;28;103876;-78
2022/03/12 07:31:21;;;;;;;8.77;7.87;;;;;;;22.96;23.33;96119.56;6181450;28;103964;-76
2022/03/12 07:34:28;;;;;;;10.27;9.40;;;;;;;22.98;23.31;96125.41;6190003;28;104026;-76
2022/03/12 07:37:29;;;;;;;9.70;9.00;;;;;;;23.01;23.37;96128.31;6202396;28;102818;-77
2022/03/12 07:40:33;;;;;;;10.73;9.00;;;;;;;23.03;22.76;96136.84;6188831;28;103158;-75
2022/03/12 07:43:35;;;;;;;9.67;8.60;;;;;;;23.12;22.79;96131.69;6183367;28;102865;-76
2022/03/12 07:46:38;;;;;;;18.83;12.90;;;;;;;23.05;22.87;96126.69;6180788;28;102786;-76
2022/03/12 07:49:39;;;;;;;471.57;180.63;;;;;;;22.95;22.69;96124.09;6195854;28;103137;-78
2022/03/12 07:52:42;;;;;;;236.10;97.20;;;;;;;23.04;23.12;96124.31;6180093;28;104090;-77
2022/03/12 07:55:44;;;;;;;291.93;111.67;;;;;;;23.17;23.84;96128.97;6180877;28;103170;-75
2022/03/12 07:58:47;;;;;;;246.33;96.07;;;;;;;23.22;22.92;96130.81;6198245;28;103259;-76
2022/03/12 08:01:49;;;;;;;281.43;109.20;;;;;;;23.32;24.01;96128.03;6180390;28;102901;-78
2022/03/12 08:04:51;;;;;;;232.57;98.33;;;;;;;23.34;23.65;96132.03;6181947;28;103785;-76
2022/03/12 08:07:54;;;;;;;210.87;87.67;;;;;;;23.37;23.41;96138.69;6181343;28;106345;-77
2022/03/12 08:14:17;;;;;;;192.90;82.80;;;;;;;23.49;24.08;96131.09;6190802;28;103259;-75
2022/03/12 08:17:19;;;;;;;194.57;82.40;;;;;;;23.56;24.04;96130.78;6198225;28;102697;-75
2022/03/12 08:20:21;;;;;;;190.47;77.33;;;;;;;23.56;24.61;96138.78;6174303;28;103696;-74
2022/03/12 08:23:23;;;;;;;150.03;66.53;;;;;;;23.44;24.03;96136.47;6167397;28;103581;-75
2022/03/12 08:26:25;;;;;;;95.40;42.90;;;;;;;23.24;23.59;96136.66;6188749;28;102942;-75
2022/03/12 08:29:27;;;;;;;58.40;30.70;;;;;;;23.05;22.65;96124.03;6199824;28;103351;-75
2022/03/12 08:32:36;;;;;;;74.57;35.97;;;;;;;23.11;22.91;96140.75;6193672;28;104223;-79
2022/03/12 08:35:44;;;;;;;67.07;34.10;;;;;;;23.10;22.33;96142.63;6182765;28;102984;-76
2022/03/12 08:39:35;;;;;;;52.60;28.10;;;;;;;23.21;22.77;96137.22;6220752;28;103405;-77
2022/03/12 08:42:40;;;;;;;51.03;27.70;;;;;;;23.13;22.57;96146.59;6156957;28;102968;-78
2022/03/12 08:45:56;;;;;;;51.63;27.30;;;;;;;22.98;22.60;96142.19;6173297;28;102776;-77
2022/03/12 08:49:18;;;;;;;51.37;26.77;;;;;;;22.94;22.82;96148.34;6195148;28;103730;-79
2022/03/12 08:52:20;;;;;;;52.37;26.03;;;;;;;22.90;22.97;96142.78;6193399;28;103286;-75
2022/03/12 08:55:23;;;;;;;41.20;22.57;;;;;;;22.90;22.88;96147.31;6190322;28;103074;-78
2022/03/12 08:58:27;;;;;;;44.67;23.87;;;;;;;22.76;23.11;96145.25;6190682;28;104024;-75
2022/03/12 09:01:30;;;;;;;41.70;20.83;;;;;;;22.66;23.27;96150.63;6176486;28;103264;-78
2022/03/12 09:04:34;;;;;;;38.17;19.90;;;;;;;22.53;22.94;96148.59;6189279;28;102921;-77
2022/03/12 09:07:38;;;;;;;36.67;22.17;;;;;;;22.61;23.14;96149.84;6186543;28;102686;-75
2022/03/12 09:10:40;;;;;;;38.80;21.17;;;;;;;22.63;24.06;96145.84;6209326;28;104990;-77
2022/03/12 09:13:43;;;;;;;34.60;19.50;;;;;;;22.63;23.78;96155.72;6209713;28;103557;-78
2022/03/12 09:16:45;;;;;;;33.57;20.03;;;;;;;22.66;23.84;96155.94;6190555;28;102855;-81
2022/03/12 09:19:47;;;;;;;33.20;20.40;;;;;;;22.65;24.56;96159.69;6210908;28;102579;-78
2022/03/12 09:22:50;;;;;;;36.07;21.10;;;;;;;22.61;24.84;96158.66;6194931;28;105181;-80
2022/03/12 09:25:53;;;;;;;37.13;20.57;;;;;;;22.60;24.98;96153.59;6181776;28;103296;-76
2022/03/12 09:28:59;;;;;;;32.00;18.63;;;;;;;22.68;26.42;96163.69;6185116;28;102747;-77
2022/03/12 09:32:05;;;;;;;36.43;18.80;;;;;;;22.62;26.78;96160.25;6187124;28;103191;-77
2022/03/12 09:35:14;;;;;;;35.87;19.20;;;;;;;22.54;28.79;96166.16;6171904;28;102812;-77
2022/03/12 09:38:16;;;;;;;28.33;18.77;;;;;;;22.49;28.25;96152.84;6190573;28;105182;-75
2022/03/12 09:41:18;;;;;;;31.83;18.80;;;;;;;22.51;28.05;96156.06;6172747;28;103213;-75
2022/03/12 09:44:23;;;;;;;30.83;17.33;;;;;;;22.69;28.48;96155.41;6176723;28;105287;-75
2022/03/12 09:47:25;;;;;;;25.87;17.20;;;;;;;22.68;27.83;96156.50;6178979;28;103150;-79
2022/03/12 09:50:27;;;;;;;25.40;16.60;;;;;;;22.55;27.19;96145.66;6179395;28;103513;-77
2022/03/12 09:53:29;;;;;;;26.37;16.17;;;;;;;22.57;26.62;96146.97;6184886;28;103494;-79
2022/03/12 09:56:31;;;;;;;25.30;15.57;;;;;;;22.63;26.39;96151.16;6190126;28;104230;-78
2022/03/12 09:59:33;;;;;;;20.90;15.23;;;;;;;22.69;26.17;96154.63;6192809;28;102525;-76
2022/03/12 10:02:36;;;;;;;19.87;14.60;;;;;;;22.58;26.15;96159.19;6179809;28;103634;-76
2022/03/12 10:05:39;;;;;;;21.90;12.10;;;;;;;22.54;26.33;96160.03;6182388;28;102658;-79
2022/03/12 10:08:43;;;;;;;15.23;11.27;;;;;;;22.34;25.90;96145.75;6183859;28;102556;-79
2022/03/12 10:11:45;;;;;;;15.00;11.37;;;;;;;22.25;26.30;96152.69;6180662;28;102785;-77
2022/03/12 10:14:50;;;;;;;15.67;10.10;;;;;;;22.25;26.70;96150.03;6168374;28;103709;-77
2022/03/12 10:17:52;;;;;;;12.50;9.00;;;;;;;22.35;26.34;96141.22;6179133;28;103349;-77
2022/03/12 10:20:59;;;;;;;14.47;9.23;;;;;;;22.45;26.64;96157.13;6189627;28;103188;-76
2022/03/12 10:24:04;;;;;;;9.37;8.20;;;;;;;22.45;25.94;96149.13;6174123;28;103197;-75
2022/03/12 10:27:06;;;;;;;9.23;7.30;;;;;;;22.48;25.77;96146.72;6173995;28;103709;-77
2022/03/12 10:30:10;;;;;;;7.47;6.43;;;;;;;22.55;25.60;96148.31;6175272;28;102956;-75
2022/03/12 10:33:23;;;;;;;6.90;5.90;;;;;;;22.57;24.90;96143.50;6180097;28;106394;-77
2022/03/12 10:36:25;;;;;;;6.03;5.43;;;;;;;22.58;25.04;96145.88;6170028;28;104320;-77
2022/03/12 10:39:32;;;;;;;6.20;5.60;;;;;;;22.51;24.85;96143.53;6166734;28;102761;-78
2022/03/12 10:42:40;;;;;;;6.27;5.77;;;;;;;22.49;24.54;96131.53;6167459;28;103587;-77
2022/03/12 10:45:55;;;;;;;5.40;4.90;;;;;;;22.50;24.66;96125.94;6180984;28;102680;-78
2022/03/12 10:48:59;;;;;;;5.23;4.73;;;;;;;22.64;24.67;96122.66;6160235;28;103278;-76
2022/03/12 10:52:04;;;;;;;5.53;5.10;;;;;;;22.64;24.82;96128.00;6165617;28;103287;-78
2022/03/12 10:55:16;;;;;;;5.80;5.40;;;;;;;22.63;24.93;96118.41;6166002;28;103610;-77
2022/03/12 10:58:26;;;;;;;7.70;7.00;;;;;;;22.62;25.23;96117.63;6162713;28;104321;-78
2022/03/12 11:01:28;;;;;;;10.13;9.27;;;;;;;22.66;25.55;96112.53;6164358;28;106472;-77
2022/03/12 11:04:33;;;;;;;12.80;11.70;;;;;;;22.66;25.68;96115.19;6166732;28;104745;-77
2022/03/12 11:07:40;;;;;;;17.63;16.03;;;;;;;22.66;26.25;96115.19;6167485;28;103121;-78
2022/03/12 11:11:06;;;;;;;20.57;18.87;;;;;;;22.67;27.00;96112.25;6132478;28;103864;-78
2022/03/12 11:14:17;;;;;;;21.67;19.77;;;;;;;22.72;27.07;96101.59;6163875;28;103294;-77
2022/03/12 11:17:23;;;;;;;23.07;20.90;;;;;;;22.69;27.08;96094.16;6150303;28;104162;-74
2022/03/12 11:20:27;;;;;;;24.83;22.40;;;;;;;22.73;27.20;96102.38;6158554;28;103784;-78
2022/03/12 11:23:32;;;;;;;23.53;21.33;;;;;;;22.71;27.11;96105.31;6159706;28;103175;-76
2022/03/12 11:26:44;;;;;;;25.40;23.00;;;;;;;22.72;27.16;96096.25;6162730;28;103587;-77
2022/03/12 11:29:57;;;;;;;24.63;22.43;;;;;;;22.67;27.31;96090.16;6168930;28;105772;-79
2022/03/12 11:33:07;;;;;;;24.30;22.13;;;;;;;22.63;27.93;96086.44;6166934;28;103791;-78
2022/03/12 11:36:09;;;;;;;25.00;22.90;;;;;;;22.57;27.55;96082.25;6167388;28;104306;-77
2022/03/12 11:39:18;;;;;;;24.60;22.40;;;;;;;22.54;27.89;96088.91;6167248;28;103692;-77
2022/03/12 11:42:26;;;;;;;25.77;23.53;;;;;;;22.51;27.94;96087.59;6182263;28;105431;-76
2022/03/12 11:45:30;;;;;;;27.23;24.87;;;;;;;22.48;28.20;96092.66;6172494;28;103194;-77
2022/03/12 11:48:34;;;;;;;28.83;26.27;;;;;;;22.46;27.62;96092.16;6169084;28;103820;-77
2022/03/12 11:51:39;;;;;;;26.93;24.63;;;;;;;22.43;27.04;96090.84;6154057;28;102772;-79
2022/03/12 11:54:43;;;;;;;28.07;25.77;;;;;;;22.47;27.61;96086.53;6140306;28;103392;-78
2022/03/12 11:57:47;;;;;;;28.60;26.00;;;;;;;22.45;27.69;96088.69;6162606;28;104308;-77
2022/03/12 12:00:49;;;;;;;25.10;23.03;;;;;;;22.48;27.27;96080.16;6172604;28;103098;-73
2022/03/12 12:03:53;;;;;;;25.47;23.30;;;;;;;22.47;27.33;96083.09;6172518;28;103416;-76
2022/03/12 12:06:55;;;;;;;21.77;19.97;;;;;;;22.46;27.11;96089.47;6188301;28;103076;-75
2022/03/12 12:09:57;;;;;;;21.60;19.80;;;;;;;22.44;26.77;96089.75;6176622;28;102799;-74
2022/03/12 12:13:04;;;;;;;21.67;19.80;;;;;;;22.45;27.02;96094.00;6165866;28;103153;-72
2022/03/12 12:16:07;;;;;;;20.83;19.03;;;;;;;22.45;27.06;96094.00;6167945;28;103269;-73
2022/03/12 12:19:09;;;;;;;21.20;19.37;;;;;;;22.42;27.04;96093.78;6166284;28;103498;-74
2022/03/12 12:22:13;;;;;;;20.30;18.60;;;;;;;22.40;27.27;96095.91;6191703;28;104429;-74
2022/03/12 12:25:17;;;;;;;19.50;17.87;;;;;;;22.38;27.17;96096.19;6178623;28;103184;-74
2022/03/12 12:28:20;;;;;;;19.17;17.30;;;;;;;22.38;27.21;96093.53;6176571;28;103024;-73
2022/03/12 12:31:26;;;;;;;18.23;16.70;;;;;;;22.37;26.68;96099.94;6179219;28;103928;-75
2022/03/12 12:34:29;;;;;;;19.23;17.63;;;;;;;22.34;27.04;96095.16;6197495;28;103433;-72
2022/03/12 12:37:41;;;;;;;18.20;16.70;;;;;;;22.35;27.27;96102.09;6196590;28;103584;-73
2022/03/12 12:40:47;;;;;;;16.53;15.20;;;;;;;22.35;27.32;96104.75;6181152;28;103337;-73
2022/03/12 12:44:05;;;;;;;17.13;15.53;;;;;;;22.35;27.39;96098.63;6181962;28;103745;-73
2022/03/12 12:47:17;;;;;;;16.13;14.77;;;;;;;22.35;27.09;96104.75;6181097;28;106593;-73
2022/03/12 12:50:25;;;;;;;16.13;14.80;;;;;;;22.33;27.07;96098.88;6195854;28;103554;-73
2022/03/12 12:53:29;;;;;;;15.63;14.33;;;;;;;22.33;27.18;96095.41;6179304;28;103693;-74
2022/03/12 12:56:33;;;;;;;14.50;13.30;;;;;;;22.30;26.83;96088.78;6195082;28;106175;-74
2022/03/12 12:59:48;;;;;;;14.83;13.63;;;;;;;22.32;27.27;96094.63;6193216;28;103138;-74
2022/03/12 13:02:57;;;;;;;14.27;12.97;;;;;;;22.31;27.19;96098.34;6173057;28;104587;-74
2022/03/12 13:06:07;;;;;;;23.43;18.50;;;;;;;22.34;27.52;96091.69;6171380;28;105259;-74
2022/03/12 13:09:18;;;;;;;24.47;17.03;;;;;;;22.44;27.08;96092.44;6159456;28;103218;-73
2022/03/12 13:12:41;;;;;;;23.40;17.67;;;;;;;22.71;26.84;96093.88;6141924;28;103281;-76
2022/03/12 13:15:50;;;;;;;21.80;15.83;;;;;;;22.80;26.64;96084.19;6167124;28;103335;-72
2022/03/12 13:18:53;;;;;;;20.43;16.50;;;;;;;22.85;26.53;96089.53;6167715;28;103653;-74
2022/03/12 13:22:07;;;;;;;18.33;15.00;;;;;;;22.99;26.31;96090.47;6170031;28;104993;-73
2022/03/12 13:25:18;;;;;;;20.13;15.57;;;;;;;23.05;25.98;96084.03;6171128;28;103600;-71
2022/03/12 13:28:41;;;;;;;17.20;14.43;;;;;;;23.11;26.06;96082.13;6172698;28;103320;-74
2022/03/12 13:31:45;;;;;;;19.83;14.60;;;;;;;23.15;26.14;96077.81;6169364;28;104359;-73
2022/03/12 13:34:49;;;;;;;21.07;13.90;;;;;;;23.18;26.20;96076.44;6174462;28;103074;-75
2022/03/12 13:37:53;;;;;;;14.57;12.30;;;;;;;23.24;25.85;96078.00;6174903;28;102830;-73
2022/03/12 13:40:55;;;;;;;17.57;14.27;;;;;;;23.25;26.21;96067.06;6156001;28;103344;-72
2022/03/12 13:43:58;;;;;;;14.83;12.30;;;;;;;23.31;26.15;96070.47;6170434;28;102763;-74
2022/03/12 13:47:01;;;;;;;14.80;11.70;;;;;;;23.34;25.95;96076.03;6172394;28;103230;-75
2022/03/12 13:50:03;;;;;;;14.50;12.07;;;;;;;23.34;26.02;96070.69;6170592;28;106260;-75
2022/03/12 13:53:06;;;;;;;15.27;10.80;;;;;;;23.37;25.74;96061.34;6155941;28;104849;-72
2022/03/12 13:56:15;;;;;;;12.90;10.70;;;;;;;23.38;25.87;96066.41;6168591;28;104948;-72
2022/03/12 13:59:27;;;;;;;13.60;9.97;;;;;;;23.40;25.75;96063.44;6169809;28;103516;-72
2022/03/12 14:02:29;;;;;;;11.17;9.97;;;;;;;23.40;26.17;96052.78;6189650;28;104316;-74
2022/03/12 14:05:38;;;;;;;12.50;9.87;;;;;;;23.39;26.05;96052.00;6187241;28;103283;-73
2022/03/12 14:08:47;;;;;;;12.27;9.30;;;;;;;23.37;25.86;96053.34;6169918;28;105076;-73
2022/03/12 14:11:51;;;;;;;10.90;8.90;;;;;;;23.39;25.63;96056.53;6171060;28;103044;-73